Time;durP1;ratioP1;P1;durP2;ratioP2;P2;SDS_P1;SDS_P2;PMS_P1;PMS_P2;Temp;Humidity;BMP_temperature;BMP_pressure;BME280_temperature;BME280_humidity;BME280_pressure;Samples;Min_cycle;Max_cycle;Signal;HPM_P1;HPM_P2
2023/03/24 00:00:33;;;;;;;;;;;;;;;12.36;89.34;100046.22;20511830;28;19926;-58
2023/03/24 00:10:56;;;;;;;;;;;;;;;12.36;87.08;100033.25;20515189;28;19981;-60
2023/03/24 00:21:20;;;;;;;;;;;;;;;12.26;89.16;100018.25;20513046;28;20401;-58
2023/03/24 00:31:42;;;;;;;;;;;;;;;12.20;90.05;99983.06;20525065;28;19922;-58
2023/03/24 00:42:03;;;;;;;;;;;;;;;12.24;91.68;99963.00;20515468;28;20012;-60
2023/03/24 00:52:25;;;;;;;;;;;;;;;12.18;89.97;99951.19;20519171;28;19922;-61
2023/03/24 01:02:47;;;;;;;;;;;;;;;12.14;90.89;99931.53;20509662;28;19930;-59
2023/03/24 01:13:09;;;;;;;;;;;;;;;12.08;90.89;99911.09;20517965;28;19944;-60
2023/03/24 01:23:30;;;;;;;;;;;;;;;12.10;90.79;99897.09;20530547;28;19926;-60
2023/03/24 01:33:52;;;;;;;;;;;;;;;12.07;90.94;99880.88;20545372;28;20323;-60
2023/03/24 01:44:26;;;;;;;;;;;;;;;11.98;92.82;99856.25;20545076;28;19983;-57
2023/03/24 01:54:49;;;;;;;;;;;;;;;11.97;93.09;99848.56;20524432;28;19922;-59
2023/03/24 02:05:12;;;;;;;;;;;;;;;11.98;93.19;99832.94;20529043;28;19965;-58
2023/03/24 02:15:39;;;;;;;;;;;;;;;12.00;94.38;99812.09;20521826;28;19925;-60
2023/03/24 02:26:18;;;;;;;;;;;;;;;12.02;94.90;99781.75;20523025;28;20007;-59
2023/03/24 02:36:58;;;;;;;;;;;;;;;12.02;95.27;99772.22;20536010;28;20631;-58
2023/03/24 02:47:23;;;;;;;;;;;;;;;12.12;94.58;99742.28;20525024;28;20363;-58
2023/03/24 02:57:44;;;;;;;;;;;;;;;12.10;96.39;99723.38;20528926;28;19921;-59
2023/03/24 03:08:07;;;;;;;;;;;;;;;12.17;96.06;99697.94;20517934;28;19930;-59
2023/03/24 03:18:32;;;;;;;;;;;;;;;12.22;96.63;99685.56;20505979;28;19926;-58
2023/03/24 03:28:56;;;;;;;;;;;;;;;12.27;96.32;99667.97;20524025;28;19981;-60
2023/03/24 03:39:26;;;;;;;;;;;;;;;12.36;96.00;99662.28;20529485;28;20342;-59
2023/03/24 03:49:48;;;;;;;;;;;;;;;12.37;96.83;99653.59;20517200;28;19922;-59
2023/03/24 04:00:15;;;;;;;;;;;;;;;12.39;97.76;99636.19;20513059;28;19922;-59
2023/03/24 04:10:55;;;;;;;;;;;;;;;12.42;97.63;99636.00;20522412;28;20374;-59
2023/03/24 04:21:17;;;;;;;;;;;;;;;12.45;98.13;99625.47;20532404;28;19926;-58
2023/03/24 04:31:54;;;;;;;;;;;;;;;12.52;97.32;99616.41;20517228;28;19926;-59
2023/03/24 04:42:22;;;;;;;;;;;;;;;12.55;98.38;99617.97;20508773;28;20378;-59
2023/03/24 04:52:43;;;;;;;;;;;;;;;12.66;96.97;99613.00;20512709;28;19980;-60
2023/03/24 05:03:05;;;;;;;;;;;;;;;12.73;97.00;99622.94;20532480;28;20282;-58
2023/03/24 05:13:27;;;;;;;;;;;;;;;12.79;96.46;99627.78;20527592;28;19926;-60
2023/03/24 05:23:48;;;;;;;;;;;;;;;12.78;96.88;99662.44;20526128;28;19926;-59
2023/03/24 05:34:10;;;;;;;;;;;;;;;12.83;91.11;99704.56;20547077;28;20061;-59
2023/03/24 05:44:31;;;;;;;;;;;;;;;12.53;90.81;99727.03;20539395;28;19930;-59
2023/03/24 05:54:53;;;;;;;;;;;;;;;12.38;87.00;99764.22;20520745;28;20018;-59
2023/03/24 06:05:15;;;;;;;;;;;;;;;12.15;86.54;99782.78;20521843;28;19981;-61
2023/03/24 06:15:41;;;;;;;;;;;;;;;11.98;87.36;99808.75;20521370;28;19925;-60
2023/03/24 06:26:07;;;;;;;;;;;;;;;11.90;87.27;99835.06;20533887;28;19926;-60
2023/03/24 06:36:29;;;;;;;;;;;;;;;11.82;86.51;99844.16;20527290;28;19922;-60
2023/03/24 06:46:50;;;;;;;;;;;;;;;11.81;85.05;99858.03;20523692;28;19992;-61
2023/03/24 06:57:12;;;;;;;;;;;;;;;11.84;84.66;99886.41;20512102;28;21092;-60
2023/03/24 07:07:34;;;;;;;;;;;;;;;11.82;84.98;99898.59;20525845;28;19922;-60
2023/03/24 07:18:17;;;;;;;;;;;;;;;11.95;83.86;99928.16;20523814;28;20563;-61
2023/03/24 07:28:39;;;;;;;;;;;;;;;11.94;82.27;99940.28;20518129;28;20005;-61
2023/03/24 07:39:03;;;;;;;;;;;;;;;11.92;82.01;99946.47;20526075;28;19922;-59
2023/03/24 07:49:26;;;;;;;;;;;;;;;11.93;82.47;99968.88;20521602;28;19922;-58
2023/03/24 07:59:47;;;;;;;;;;;;;;;12.00;81.82;99978.88;20512022;28;19930;-60
2023/03/24 08:10:12;;;;;;;;;;;;;;;12.03;82.07;99990.88;20515380;28;19984;-60
2023/03/24 08:20:34;;;;;;;;;;;;;;;12.08;81.37;100001.84;20533272;28;19953;-58
2023/03/24 08:30:55;;;;;;;;;;;;;;;12.24;79.31;100005.34;20523054;28;19926;-61
2023/03/24 08:41:17;;;;;;;;;;;;;;;12.23;78.95;100024.44;20508872;28;19938;-60
2023/03/24 08:51:39;;;;;;;;;;;;;;;12.25;78.82;100050.28;20513188;28;20262;-58
2023/03/24 09:02:00;;;;;;;;;;;;;;;12.29;79.07;100065.63;20524064;28;20294;-59
2023/03/24 09:12:22;;;;;;;;;;;;;;;12.38;78.21;100069.53;20507977;28;19988;-60
2023/03/24 09:22:44;;;;;;;;;;;;;;;12.35;78.37;100083.47;20509365;28;19926;-59
2023/03/24 09:33:06;;;;;;;;;;;;;;;12.35;78.86;100082.63;20509843;28;20400;-60
2023/03/24 09:43:39;;;;;;;;;;;;;;;12.32;78.77;100080.19;20521942;28;19988;-58
2023/03/24 09:54:10;;;;;;;;;;;;;;;12.39;78.03;100092.81;20525305;28;19922;-59
2023/03/24 10:04:31;;;;;;;;;;;;;;;12.62;76.17;100086.44;20538971;28;19926;-58
2023/03/24 10:14:53;;;;;;;;;;;;;;;12.93;73.44;100092.63;20532474;28;19922;-60
2023/03/24 10:25:21;;;;;;;;;;;;;;;13.39;68.98;100079.84;20527443;28;19926;-58
2023/03/24 10:35:55;;;;;;;;;;;;;;;13.57;70.83;100084.06;20519307;28;19941;-59
2023/03/24 10:46:19;;;;;;;;;;;;;;;13.86;66.35;100110.13;20522752;28;20630;-60
2023/03/24 10:56:51;;;;;;;;;;;;;;;13.98;66.88;100098.22;20519583;28;19926;-58
2023/03/24 11:07:15;;;;;;;;;;;;;;;14.40;65.87;100124.47;20530364;28;19936;-59
2023/03/24 11:17:36;;;;;;;;;;;;;;;14.48;66.00;100124.03;20513603;28;20358;-59
2023/03/24 11:27:59;;;;;;;;;;;;;;;14.12;67.08;100137.31;20503976;28;20273;-59
2023/03/24 11:38:31;;;;;;;;;;;;;;;14.26;65.49;100139.16;20510668;28;20360;-58
2023/03/24 11:48:54;;;;;;;;;;;;;;;14.24;63.49;100160.06;20517352;28;19988;-59
2023/03/24 11:59:16;;;;;;;;;;;;;;;14.54;60.62;100170.56;20511687;28;19930;-59
2023/03/24 12:09:40;;;;;;;;;;;;;;;14.68;59.79;100153.22;20518685;28;19929;-59
2023/03/24 12:20:23;;;;;;;;;;;;;;;14.82;59.63;100155.84;20510203;28;19985;-60
2023/03/24 12:31:10;;;;;;;;;;;;;;;15.06;58.99;100167.44;20531287;28;19926;-59
2023/03/24 12:41:39;;;;;;;;;;;;;;;14.98;55.19;100156.63;20517234;28;20013;-59
2023/03/24 12:52:19;;;;;;;;;;;;;;;14.91;58.25;100157.91;20497730;28;20068;-59
2023/03/24 13:02:44;;;;;;;;;;;;;;;14.80;59.52;100147.28;20512148;28;19969;-61
2023/03/24 13:13:08;;;;;;;;;;;;;;;14.67;57.20;100130.69;20525055;28;19921;-59
2023/03/24 13:23:34;;;;;;;;;;;;;;;14.64;58.01;100143.91;20531073;28;19976;-60
2023/03/24 13:33:56;;;;;;;;;;;;;;;14.90;60.86;100125.00;20516726;28;19923;-59
2023/03/24 13:44:29;;;;;;;;;;;;;;;15.47;56.56;100123.28;20533418;28;19926;-59
2023/03/24 13:54:53;;;;;;;;;;;;;;;15.61;57.33;100125.88;20524548;28;19993;-59
2023/03/24 14:05:30;;;;;;;;;;;;;;;15.76;58.52;100108.44;20530798;28;19973;-60
2023/03/24 14:15:51;;;;;;;;;;;;;;;15.82;59.75;100114.09;20532984;28;19933;-60
2023/03/24 14:26:19;;;;;;;;;;;;;;;15.89;56.37;100114.56;20522857;28;19922;-61
2023/03/24 14:36:43;;;;;;;;;;;;;;;15.81;56.88;100122.84;20514990;28;19923;-61
2023/03/24 14:47:04;;;;;;;;;;;;;;;15.76;55.69;100111.88;20520143;28;19926;-60
2023/03/24 14:57:26;;;;;;;;;;;;;;;15.86;55.84;100119.94;20521464;28;19929;-60
2023/03/24 15:08:06;;;;;;;;;;;;;;;15.50;57.99;100124.84;20525712;28;19933;-61
2023/03/24 15:18:28;;;;;;;;;;;;;;;15.02;61.83;100124.25;20513541;28;19993;-60
2023/03/24 15:28:53;;;;;;;;;;;;;;;15.16;60.34;100136.47;20516016;28;19922;-60
2023/03/24 15:39:17;;;;;;;;;;;;;;;14.91;61.65;100133.63;20507999;28;19933;-60
2023/03/24 15:49:48;;;;;;;;;;;;;;;14.62;63.04;100132.72;20511245;28;19926;-59
2023/03/24 16:00:15;;;;;;;;;;;;;;;15.27;62.49;100114.97;20517825;28;19922;-59
2023/03/24 16:10:44;;;;;;;;;;;;;;;15.49;62.31;100110.16;20513604;28;19922;-59
2023/03/24 16:21:12;;;;;;;;;;;;;;;15.24;63.38;100112.53;20519476;28;19973;-59
2023/03/24 16:31:34;;;;;;;;;;;;;;;14.51;65.69;100119.50;20512644;28;19996;-59
2023/03/24 16:41:56;;;;;;;;;;;;;;;14.21;67.10;100121.19;20509617;28;19932;-59
2023/03/24 16:52:17;;;;;;;;;;;;;;;14.16;67.88;100123.22;20516551;28;19922;-59
2023/03/24 17:02:43;;;;;;;;;;;;;;;13.93;68.94;100126.25;20529801;28;20017;-59
2023/03/24 17:13:06;;;;;;;;;;;;;;;13.69;68.36;100138.00;20514395;28;19926;-59
2023/03/24 17:23:29;;;;;;;;;;;;;;;13.44;69.07;100146.25;20510394;28;20425;-58
2023/03/24 17:33:50;;;;;;;;;;;;;;;13.22;69.79;100131.88;20510159;28;20026;-59
2023/03/24 17:44:12;;;;;;;;;;;;;;;13.13;69.65;100142.75;20515619;28;19925;-59
2023/03/24 17:54:33;;;;;;;;;;;;;;;12.98;70.36;100150.34;20513530;28;19949;-61
2023/03/24 18:04:54;;;;;;;;;;;;;;;12.90;70.93;100162.03;20502402;28;19997;-59
2023/03/24 18:15:16;;;;;;;;;;;;;;;12.84;71.98;100168.38;20532538;28;19933;-59
2023/03/24 18:25:37;;;;;;;;;;;;;;;12.68;72.77;100177.84;20543052;28;19977;-60
2023/03/24 18:36:00;;;;;;;;;;;;;;;12.54;73.03;100172.50;20526148;28;19926;-59
2023/03/24 18:46:22;;;;;;;;;;;;;;;12.40;73.32;100177.50;20513862;28;20515;-59
2023/03/24 18:56:43;;;;;;;;;;;;;;;12.30;72.85;100176.28;20518962;28;19937;-59
2023/03/24 19:07:13;;;;;;;;;;;;;;;12.17;73.25;100179.50;20507718;28;20291;-59
2023/03/24 19:17:34;;;;;;;;;;;;;;;12.05;73.55;100180.91;20529793;28;19922;-60
2023/03/24 19:27:56;;;;;;;;;;;;;;;11.93;73.38;100178.88;20511525;28;19930;-60
2023/03/24 19:38:20;;;;;;;;;;;;;;;11.84;73.95;100182.75;20517156;28;19988;-59
2023/03/24 19:48:42;;;;;;;;;;;;;;;11.80;74.25;100175.19;20514833;28;19966;-61
2023/03/24 19:59:03;;;;;;;;;;;;;;;11.79;74.29;100173.50;20510025;28;19969;-60
2023/03/24 20:09:25;;;;;;;;;;;;;;;11.77;75.09;100167.56;20510398;28;19981;-61
2023/03/24 20:19:47;;;;;;;;;;;;;;;11.65;76.25;100165.50;20507823;28;19964;-59
2023/03/24 20:30:09;;;;;;;;;;;;;;;11.59;76.40;100148.44;20495337;28;19930;-59
2023/03/24 20:40:30;;;;;;;;;;;;;;;11.56;76.07;100134.78;20495927;28;20576;-59
2023/03/24 20:50:51;;;;;;;;;;;;;;;11.35;76.31;100135.75;20526614;28;20398;-60
2023/03/24 21:01:19;;;;;;;;;;;;;;;11.35;77.05;100130.56;20505656;28;20024;-60
2023/03/24 21:11:40;;;;;;;;;;;;;;;11.35;76.87;100118.47;20496744;28;19929;-61
2023/03/24 21:22:02;;;;;;;;;;;;;;;11.34;76.62;100108.16;20527413;28;19930;-60
2023/03/24 21:32:23;;;;;;;;;;;;;;;11.32;76.86;100094.47;20505612;28;19965;-60
2023/03/24 21:42:45;;;;;;;;;;;;;;;11.37;78.32;100121.00;20525004;28;19926;-59
2023/03/24 21:53:13;;;;;;;;;;;;;;;11.09;84.66;100108.41;20517563;28;19933;-59
2023/03/24 22:03:35;;;;;;;;;;;;;;;10.99;84.21;100096.75;20535460;28;19987;-60
2023/03/24 22:13:57;;;;;;;;;;;;;;;10.81;83.24;100098.41;20536586;28;19923;-58
2023/03/24 22:24:19;;;;;;;;;;;;;;;10.81;82.96;100082.88;20519815;28;19971;-59
2023/03/24 22:34:40;;;;;;;;;;;;;;;10.75;85.73;100077.97;20523407;28;19926;-60
2023/03/24 22:45:02;;;;;;;;;;;;;;;10.80;83.23;100086.38;20516291;28;19996;-59
2023/03/24 22:55:24;;;;;;;;;;;;;;;10.89;81.03;100086.00;20514009;28;20347;-59
2023/03/24 23:05:46;;;;;;;;;;;;;;;10.98;80.98;100077.81;20508001;28;20005;-60
2023/03/24 23:16:07;;;;;;;;;;;;;;;10.99;80.60;100087.25;20501625;28;20108;-59
2023/03/24 23:26:29;;;;;;;;;;;;;;;10.98;80.00;100077.81;20504611;28;19930;-60
2023/03/24 23:36:50;;;;;;;;;;;;;;;10.99;79.08;100065.69;20515418;28;20330;-60
2023/03/24 23:47:12;;;;;;;;;;;;;;;10.90;79.16;100071.28;20517535;28;19953;-59
2023/03/24 23:57:34;;;;;;;;;;;;;;;10.81;79.43;100077.69;20535061;28;19981;-59
